<?xml version='1.0' encoding='UTF-8'?>
<gpx xmlns="http://www.topografix.com/GPX/1/1" creator="www.balnam.be" version="1.1" xmlns:xsi="http://www.w3.org/2001/XMLSchema-instance" xsi:schemaLocation="http://www.topografix.com/GPX/1/1 http://www.topografix.com/GPX/1/1/gpx.xsd">
<trk>
<name>xmfon10</name>
<cmt>v</cmt>
<desc>On Chemin n°10 </desc>
<link href="https://chemins.be/on/chemin/10"/><trkseg>
<trkpt lat="50.165652" lon="5.313505"><time>2026-05-04T21:08:09Z</time></trkpt>
<trkpt lat="50.165536" lon="5.311978"><time>2026-05-04T21:18:09Z</time></trkpt>
</trkseg></trk>
<trk>
<name>xmfon10</name>
<cmt>q</cmt>
<desc>On Chemin n°10 </desc>
<link href="https://chemins.be/on/chemin/10"/><trkseg>
<trkpt lat="50.165536" lon="5.311978"><time>2026-05-04T21:18:09Z</time></trkpt>
<trkpt lat="50.165432" lon="5.310862"><time>2026-05-04T21:28:09Z</time></trkpt>
<trkpt lat="50.164959" lon="5.309154"><time>2026-05-04T21:38:09Z</time></trkpt>
</trkseg>
</trk>
<trk>
<name>xmfon11</name>
<cmt>q</cmt>
<desc>On Chemin n°11 </desc>
<link href="https://chemins.be/on/chemin/11"/><trkseg>
<trkpt lat="50.166878" lon="5.311342"><time>2026-05-04T21:08:09Z</time></trkpt>
<trkpt lat="50.164629" lon="5.310587"><time>2026-05-04T21:18:09Z</time></trkpt>
<trkpt lat="50.162343" lon="5.310074"><time>2026-05-04T21:28:09Z</time></trkpt>
<trkpt lat="50.160287" lon="5.309010"><time>2026-05-04T21:38:09Z</time></trkpt>
<trkpt lat="50.159856" lon="5.308991"><time>2026-05-04T21:48:09Z</time></trkpt>
</trkseg></trk>
<trk>
<name>xmfon11</name>
<cmt>v</cmt>
<desc>On Chemin n°11 </desc>
<link href="https://chemins.be/on/chemin/11"/><trkseg>
<trkpt lat="50.159856" lon="5.308991"><time>2026-05-04T21:48:09Z</time></trkpt>
<trkpt lat="50.159523" lon="5.308989"><time>2026-05-04T21:58:09Z</time></trkpt>
</trkseg>
</trk>
<trk>
<name>xmfon13</name>
<cmt>v</cmt>
<desc>On Chemin n°13 </desc>
<link href="https://chemins.be/on/chemin/13"/><trkseg>
<trkpt lat="50.164959" lon="5.308296"><time>2026-05-04T21:08:09Z</time></trkpt>
<trkpt lat="50.164894" lon="5.308270"><time>2026-05-04T21:18:09Z</time></trkpt>
<trkpt lat="50.164609" lon="5.307996"><time>2026-05-04T21:28:09Z</time></trkpt>
<trkpt lat="50.163876" lon="5.307081"><time>2026-05-04T21:38:09Z</time></trkpt>
<trkpt lat="50.163080" lon="5.306172"><time>2026-05-04T21:48:09Z</time></trkpt>
<trkpt lat="50.162949" lon="5.305981"><time>2026-05-04T21:58:09Z</time></trkpt>
<trkpt lat="50.162506" lon="5.305282"><time>2026-05-04T22:08:09Z</time></trkpt>
<trkpt lat="50.162279" lon="5.304971"><time>2026-05-04T22:18:09Z</time></trkpt>
<trkpt lat="50.162018" lon="5.304627"><time>2026-05-04T22:28:09Z</time></trkpt>
<trkpt lat="50.161853" lon="5.304365"><time>2026-05-04T22:38:09Z</time></trkpt>
<trkpt lat="50.161733" lon="5.304134"><time>2026-05-04T22:48:09Z</time></trkpt>
<trkpt lat="50.161275" lon="5.303063"><time>2026-05-04T22:58:09Z</time></trkpt>
<trkpt lat="50.161100" lon="5.302628"><time>2026-05-04T23:08:09Z</time></trkpt>
<trkpt lat="50.160863" lon="5.302151"><time>2026-05-04T23:18:09Z</time></trkpt>
<trkpt lat="50.160746" lon="5.301936"><time>2026-05-04T23:28:09Z</time></trkpt>
<trkpt lat="50.160543" lon="5.301647"><time>2026-05-04T23:38:09Z</time></trkpt>
<trkpt lat="50.159969" lon="5.300919"><time>2026-05-04T23:48:09Z</time></trkpt>
<trkpt lat="50.158829" lon="5.298753"><time>2026-05-04T23:58:09Z</time></trkpt>
<trkpt lat="50.158999" lon="5.295402"><time>2026-05-05T00:08:09Z</time></trkpt>
<trkpt lat="50.158175" lon="5.291505"><time>2026-05-05T00:18:09Z</time></trkpt>
<trkpt lat="50.157438" lon="5.288793"><time>2026-05-05T00:28:09Z</time></trkpt>
<trkpt lat="50.157889" lon="5.285892"><time>2026-05-05T00:38:09Z</time></trkpt>
<trkpt lat="50.157999" lon="5.283076"><time>2026-05-05T00:48:09Z</time></trkpt>
<trkpt lat="50.159126" lon="5.280111"><time>2026-05-05T00:58:09Z</time></trkpt>
</trkseg>
</trk>
<trk>
<name>xmfon15</name>
<cmt>v</cmt>
<desc>On Chemin n°15 </desc>
<link href="https://chemins.be/on/chemin/15"/><trkseg>
<trkpt lat="50.167684" lon="5.285851"><time>2026-05-04T21:08:09Z</time></trkpt>
<trkpt lat="50.166309" lon="5.285701"><time>2026-05-04T21:18:09Z</time></trkpt>
</trkseg></trk>
<trk>
<name>xmfon15</name>
<cmt>q</cmt>
<desc>On Chemin n°15 </desc>
<link href="https://chemins.be/on/chemin/15"/><trkseg>
<trkpt lat="50.166309" lon="5.285701"><time>2026-05-04T21:18:09Z</time></trkpt>
<trkpt lat="50.164088" lon="5.286144"><time>2026-05-04T21:28:09Z</time></trkpt>
</trkseg></trk>
<trk>
<name>xmfon15</name>
<cmt>v</cmt>
<desc>On Chemin n°15 </desc>
<link href="https://chemins.be/on/chemin/15"/><trkseg>
<trkpt lat="50.164088" lon="5.286144"><time>2026-05-04T21:28:09Z</time></trkpt>
<trkpt lat="50.163754" lon="5.286233"><time>2026-05-04T21:38:09Z</time></trkpt>
<trkpt lat="50.163154" lon="5.286693"><time>2026-05-04T21:48:09Z</time></trkpt>
<trkpt lat="50.162264" lon="5.286013"><time>2026-05-04T21:58:09Z</time></trkpt>
<trkpt lat="50.161134" lon="5.285993"><time>2026-05-04T22:08:09Z</time></trkpt>
<trkpt lat="50.161114" lon="5.285023"><time>2026-05-04T22:18:09Z</time></trkpt>
<trkpt lat="50.160454" lon="5.283873"><time>2026-05-04T22:28:09Z</time></trkpt>
<trkpt lat="50.159714" lon="5.283623"><time>2026-05-04T22:38:09Z</time></trkpt>
<trkpt lat="50.158704" lon="5.283953"><time>2026-05-04T22:48:09Z</time></trkpt>
<trkpt lat="50.158094" lon="5.283203"><time>2026-05-04T22:58:09Z</time></trkpt>
</trkseg>
</trk>
<trk>
<name>xmfon16</name>
<cmt>v</cmt>
<desc>On Chemin n°16 </desc>
<link href="https://chemins.be/on/chemin/16"/><trkseg>
<trkpt lat="50.168327" lon="5.286879"><time>2026-05-04T21:08:09Z</time></trkpt>
<trkpt lat="50.164698" lon="5.289556"><time>2026-05-04T21:18:09Z</time></trkpt>
<trkpt lat="50.162631" lon="5.291822"><time>2026-05-04T21:28:09Z</time></trkpt>
<trkpt lat="50.162367" lon="5.292681"><time>2026-05-04T21:38:09Z</time></trkpt>
<trkpt lat="50.162078" lon="5.293260"><time>2026-05-04T21:48:09Z</time></trkpt>
<trkpt lat="50.160783" lon="5.294741"><time>2026-05-04T21:58:09Z</time></trkpt>
<trkpt lat="50.160409" lon="5.296286"><time>2026-05-04T22:08:09Z</time></trkpt>
<trkpt lat="50.158781" lon="5.298277"><time>2026-05-04T22:18:09Z</time></trkpt>
</trkseg>
</trk>
<trk>
<name>xmfon17</name>
<cmt>q</cmt>
<desc>On Chemin n°17 </desc>
<link href="https://chemins.be/on/chemin/17"/><trkseg>
<trkpt lat="50.176521" lon="5.293790"><time>2026-05-04T21:08:09Z</time></trkpt>
<trkpt lat="50.177705" lon="5.295210"><time>2026-05-04T21:18:09Z</time></trkpt>
<trkpt lat="50.178439" lon="5.295432"><time>2026-05-04T21:28:09Z</time></trkpt>
<trkpt lat="50.179653" lon="5.295768"><time>2026-05-04T21:38:09Z</time></trkpt>
<trkpt lat="50.180170" lon="5.296540"><time>2026-05-04T21:48:09Z</time></trkpt>
</trkseg>
</trk>
<trk>
<name>xmfon19</name>
<cmt>v</cmt>
<desc>On Chemin n°19 Rue Noel Ulysse</desc>
<link href="https://chemins.be/on/chemin/19"/><trkseg>
<trkpt lat="50.175732" lon="5.288171"><time>2026-05-04T21:08:09Z</time></trkpt>
<trkpt lat="50.175370" lon="5.289606"><time>2026-05-04T21:18:09Z</time></trkpt>
<trkpt lat="50.175812" lon="5.290595"><time>2026-05-04T21:28:09Z</time></trkpt>
<trkpt lat="50.176588" lon="5.291324"><time>2026-05-04T21:38:09Z</time></trkpt>
<trkpt lat="50.177065" lon="5.291291"><time>2026-05-04T21:48:09Z</time></trkpt>
<trkpt lat="50.177198" lon="5.291546"><time>2026-05-04T21:58:09Z</time></trkpt>
</trkseg></trk>
<trk>
<name>xmfon19</name>
<cmt>d</cmt>
<desc>On Chemin n°19 Rue Noel Ulysse</desc>
<link href="https://chemins.be/on/chemin/19"/><trkseg>
<trkpt lat="50.177198" lon="5.291546"><time>2026-05-04T21:58:09Z</time></trkpt>
<trkpt lat="50.177596" lon="5.291273"><time>2026-05-04T22:08:09Z</time></trkpt>
<trkpt lat="50.177646" lon="5.290630"><time>2026-05-04T22:18:09Z</time></trkpt>
</trkseg></trk>
<trk>
<name>xmfon19</name>
<cmt>q</cmt>
<desc>On Chemin n°19 Rue Noel Ulysse</desc>
<link href="https://chemins.be/on/chemin/19"/><trkseg>
<trkpt lat="50.177646" lon="5.290630"><time>2026-05-04T22:18:09Z</time></trkpt>
<trkpt lat="50.177773" lon="5.289359"><time>2026-05-04T22:28:09Z</time></trkpt>
<trkpt lat="50.178721" lon="5.287739"><time>2026-05-04T22:38:09Z</time></trkpt>
<trkpt lat="50.178564" lon="5.287092"><time>2026-05-04T22:48:09Z</time></trkpt>
<trkpt lat="50.178947" lon="5.286399"><time>2026-05-04T22:58:09Z</time></trkpt>
</trkseg>
</trk>
<trk>
<name>xmfon2</name>
<cmt>v</cmt>
<desc>On Chemin n°2 Allée des Moineaux / Rue Albert 1er / Rue Antiémont</desc>
<link href="https://chemins.be/on/chemin/2"/><trkseg>
<trkpt lat="50.161444" lon="5.312860"><time>2026-05-04T21:08:09Z</time></trkpt>
<trkpt lat="50.163842" lon="5.307195"><time>2026-05-04T21:18:09Z</time></trkpt>
<trkpt lat="50.164433" lon="5.304608"><time>2026-05-04T21:28:09Z</time></trkpt>
</trkseg></trk>
<trk>
<name>xmfon2</name>
<cmt>r</cmt>
<desc>On Chemin n°2 Allée des Moineaux / Rue Albert 1er / Rue Antiémont</desc>
<link href="https://chemins.be/on/chemin/2"/><trkseg>
<trkpt lat="50.164433" lon="5.304608"><time>2026-05-04T21:28:09Z</time></trkpt>
<trkpt lat="50.164648" lon="5.303934"><time>2026-05-04T21:38:09Z</time></trkpt>
<trkpt lat="50.165162" lon="5.303532"><time>2026-05-04T21:48:09Z</time></trkpt>
<trkpt lat="50.165642" lon="5.302401"><time>2026-05-04T21:58:09Z</time></trkpt>
<trkpt lat="50.165158" lon="5.301320"><time>2026-05-04T22:08:09Z</time></trkpt>
<trkpt lat="50.166313" lon="5.299620"><time>2026-05-04T22:18:09Z</time></trkpt>
<trkpt lat="50.166951" lon="5.297251"><time>2026-05-04T22:28:09Z</time></trkpt>
<trkpt lat="50.166324" lon="5.294951"><time>2026-05-04T22:38:09Z</time></trkpt>
<trkpt lat="50.166445" lon="5.292822"><time>2026-05-04T22:48:09Z</time></trkpt>
<trkpt lat="50.167369" lon="5.291140"><time>2026-05-04T22:58:09Z</time></trkpt>
<trkpt lat="50.167303" lon="5.288582"><time>2026-05-04T23:08:09Z</time></trkpt>
<trkpt lat="50.167786" lon="5.287896"><time>2026-05-04T23:18:09Z</time></trkpt>
<trkpt lat="50.168897" lon="5.287140"><time>2026-05-04T23:28:09Z</time></trkpt>
<trkpt lat="50.170084" lon="5.288342"><time>2026-05-04T23:38:09Z</time></trkpt>
<trkpt lat="50.171485" lon="5.288117"><time>2026-05-04T23:48:09Z</time></trkpt>
<trkpt lat="50.172760" lon="5.289327"><time>2026-05-04T23:58:09Z</time></trkpt>
<trkpt lat="50.173359" lon="5.288700"><time>2026-05-05T00:08:09Z</time></trkpt>
<trkpt lat="50.173722" lon="5.290365"><time>2026-05-05T00:18:09Z</time></trkpt>
<trkpt lat="50.173788" lon="5.291447"><time>2026-05-05T00:28:09Z</time></trkpt>
<trkpt lat="50.174091" lon="5.291893"><time>2026-05-05T00:38:09Z</time></trkpt>
<trkpt lat="50.175186" lon="5.294882"><time>2026-05-05T00:48:09Z</time></trkpt>
<trkpt lat="50.175922" lon="5.295758"><time>2026-05-05T00:58:09Z</time></trkpt>
<trkpt lat="50.178319" lon="5.298092"><time>2026-05-05T01:08:09Z</time></trkpt>
</trkseg></trk>
<trk>
<name>xmfon2</name>
<cmt>q</cmt>
<desc>On Chemin n°2 Allée des Moineaux / Rue Albert 1er / Rue Antiémont</desc>
<link href="https://chemins.be/on/chemin/2"/><trkseg>
<trkpt lat="50.178319" lon="5.298092"><time>2026-05-05T01:08:09Z</time></trkpt>
<trkpt lat="50.178620" lon="5.299252"><time>2026-05-05T01:18:09Z</time></trkpt>
<trkpt lat="50.178373" lon="5.300557"><time>2026-05-05T01:28:09Z</time></trkpt>
<trkpt lat="50.178933" lon="5.301338"><time>2026-05-05T01:38:09Z</time></trkpt>
</trkseg>
</trk>
<trk>
<name>xmfon20</name>
<cmt>v</cmt>
<desc>On Chemin n°20 </desc>
<link href="https://chemins.be/on/chemin/20"/><trkseg>
<trkpt lat="50.166667" lon="5.282343"><time>2026-05-04T21:08:09Z</time></trkpt>
<trkpt lat="50.166454" lon="5.282547"><time>2026-05-04T21:18:09Z</time></trkpt>
<trkpt lat="50.166096" lon="5.282858"><time>2026-05-04T21:28:09Z</time></trkpt>
<trkpt lat="50.165718" lon="5.282836"><time>2026-05-04T21:38:09Z</time></trkpt>
<trkpt lat="50.165464" lon="5.283019"><time>2026-05-04T21:48:09Z</time></trkpt>
</trkseg>
</trk>
<trk>
<name>xmfon21</name>
<cmt>v</cmt>
<desc>On Chemin n°21 Rue Noel Ulysse</desc>
<link href="https://chemins.be/on/chemin/21"/><trkseg>
<trkpt lat="50.177216" lon="5.291574"><time>2026-05-04T21:08:09Z</time></trkpt>
<trkpt lat="50.177677" lon="5.292367"><time>2026-05-04T21:18:09Z</time></trkpt>
<trkpt lat="50.177999" lon="5.292583"><time>2026-05-04T21:28:09Z</time></trkpt>
<trkpt lat="50.178303" lon="5.292813"><time>2026-05-04T21:38:09Z</time></trkpt>
</trkseg></trk>
<trk>
<name>xmfon21</name>
<cmt>q</cmt>
<desc>On Chemin n°21 Rue Noel Ulysse</desc>
<link href="https://chemins.be/on/chemin/21"/><trkseg>
<trkpt lat="50.178303" lon="5.292813"><time>2026-05-04T21:38:09Z</time></trkpt>
<trkpt lat="50.179155" lon="5.294160"><time>2026-05-04T21:48:09Z</time></trkpt>
</trkseg>
</trk>
<trk>
<name>xmfon22</name>
<cmt>q</cmt>
<desc>On Chemin n°22 </desc>
<link href="https://chemins.be/on/chemin/22"/><trkseg>
<trkpt lat="50.178434" lon="5.295460"><time>2026-05-04T21:08:09Z</time></trkpt>
<trkpt lat="50.178984" lon="5.295095"><time>2026-05-04T21:18:09Z</time></trkpt>
<trkpt lat="50.179190" lon="5.294158"><time>2026-05-04T21:28:09Z</time></trkpt>
<trkpt lat="50.179421" lon="5.293940"><time>2026-05-04T21:38:09Z</time></trkpt>
</trkseg></trk>
<trk>
<name>xmfon22</name>
<cmt>s</cmt>
<desc>On Chemin n°22 </desc>
<link href="https://chemins.be/on/chemin/22"/><trkseg>
<trkpt lat="50.179421" lon="5.293940"><time>2026-05-04T21:38:09Z</time></trkpt>
<trkpt lat="50.179710" lon="5.293636"><time>2026-05-04T21:48:09Z</time></trkpt>
</trkseg></trk>
<trk>
<name>xmfon22</name>
<cmt>q</cmt>
<desc>On Chemin n°22 </desc>
<link href="https://chemins.be/on/chemin/22"/><trkseg>
<trkpt lat="50.179710" lon="5.293636"><time>2026-05-04T21:48:09Z</time></trkpt>
<trkpt lat="50.180235" lon="5.293093"><time>2026-05-04T21:58:09Z</time></trkpt>
</trkseg>
</trk>
<trk>
<name>xmfon23</name>
<cmt>s</cmt>
<desc>On Chemin n°23 </desc>
<link href="https://chemins.be/on/chemin/23"/><trkseg>
<trkpt lat="50.183331" lon="5.288549"><time>2026-05-04T21:08:09Z</time></trkpt>
<trkpt lat="50.183588" lon="5.285717"><time>2026-05-04T21:18:09Z</time></trkpt>
<trkpt lat="50.183382" lon="5.284222"><time>2026-05-04T21:28:09Z</time></trkpt>
</trkseg>
</trk>
<trk>
<name>xmfon25</name>
<cmt>v</cmt>
<desc>On Chemin n°25 </desc>
<link href="https://chemins.be/on/chemin/25"/><trkseg>
<trkpt lat="50.171265" lon="5.291200"><time>2026-05-04T21:08:09Z</time></trkpt>
<trkpt lat="50.171094" lon="5.291380"><time>2026-05-04T21:18:09Z</time></trkpt>
<trkpt lat="50.170182" lon="5.291140"><time>2026-05-04T21:28:09Z</time></trkpt>
<trkpt lat="50.168917" lon="5.291252"><time>2026-05-04T21:38:09Z</time></trkpt>
<trkpt lat="50.167592" lon="5.292453"><time>2026-05-04T21:48:09Z</time></trkpt>
<trkpt lat="50.166806" lon="5.292728"><time>2026-05-04T21:58:09Z</time></trkpt>
<trkpt lat="50.166405" lon="5.293174"><time>2026-05-04T22:08:09Z</time></trkpt>
</trkseg>
</trk>
<trk>
<name>xmfon26</name>
<cmt>v</cmt>
<desc>On Chemin n°26 </desc>
<link href="https://chemins.be/on/chemin/26"/><trkseg>
<trkpt lat="50.173485" lon="5.291502"><time>2026-05-04T21:08:09Z</time></trkpt>
<trkpt lat="50.173459" lon="5.292439"><time>2026-05-04T21:18:09Z</time></trkpt>
<trkpt lat="50.173405" lon="5.294692"><time>2026-05-04T21:28:09Z</time></trkpt>
<trkpt lat="50.173633" lon="5.295481"><time>2026-05-04T21:38:09Z</time></trkpt>
</trkseg>
</trk>
<trk>
<name>xmfon31</name>
<cmt>s</cmt>
<desc>On Chemin n°31 </desc>
<link href="https://chemins.be/on/chemin/31"/><trkseg>
<trkpt lat="50.177492" lon="5.268754"><time>2026-05-04T21:08:09Z</time></trkpt>
<trkpt lat="50.176214" lon="5.269173"><time>2026-05-04T21:18:09Z</time></trkpt>
<trkpt lat="50.174425" lon="5.267369"><time>2026-05-04T21:28:09Z</time></trkpt>
</trkseg></trk>
<trk>
<name>xmfon31</name>
<cmt>r</cmt>
<desc>On Chemin n°31 </desc>
<link href="https://chemins.be/on/chemin/31"/><trkseg>
<trkpt lat="50.174425" lon="5.267369"><time>2026-05-04T21:28:09Z</time></trkpt>
<trkpt lat="50.173777" lon="5.265790"><time>2026-05-04T21:38:09Z</time></trkpt>
<trkpt lat="50.172006" lon="5.263764"><time>2026-05-04T21:48:09Z</time></trkpt>
<trkpt lat="50.169865" lon="5.265608"><time>2026-05-04T21:58:09Z</time></trkpt>
</trkseg></trk>
<trk>
<name>xmfon31</name>
<cmt>b</cmt>
<desc>On Chemin n°31 </desc>
<link href="https://chemins.be/on/chemin/31"/><trkseg>
<trkpt lat="50.169865" lon="5.265608"><time>2026-05-04T21:58:09Z</time></trkpt>
<trkpt lat="50.168380" lon="5.266161"><time>2026-05-04T22:08:09Z</time></trkpt>
</trkseg>
</trk>
<trk>
<name>xmfon32</name>
<cmt>r</cmt>
<desc>On Chemin n°32 </desc>
<link href="https://chemins.be/on/chemin/32"/><trkseg>
<trkpt lat="50.176305" lon="5.271888"><time>2026-05-04T21:08:09Z</time></trkpt>
<trkpt lat="50.176002" lon="5.270292"><time>2026-05-04T21:18:09Z</time></trkpt>
<trkpt lat="50.174430" lon="5.267348"><time>2026-05-04T21:28:09Z</time></trkpt>
</trkseg>
</trk>
<trk>
<name>xmfon33</name>
<cmt>v</cmt>
<desc>On Chemin n°33 Rue du Cruquet</desc>
<link href="https://chemins.be/on/chemin/33"/><trkseg>
<trkpt lat="50.175146" lon="5.290203"><time>2026-05-04T21:08:09Z</time></trkpt>
<trkpt lat="50.176384" lon="5.293636"><time>2026-05-04T21:18:09Z</time></trkpt>
</trkseg>
</trk>
<trk>
<name>xmfon35</name>
<cmt>q</cmt>
<desc>On Chemin n°35 </desc>
<link href="https://chemins.be/on/chemin/35"/><trkseg>
<trkpt lat="50.175871" lon="5.295800"><time>2026-05-04T21:08:09Z</time></trkpt>
<trkpt lat="50.175422" lon="5.296426"><time>2026-05-04T21:18:09Z</time></trkpt>
</trkseg>
</trk>
<trk>
<name>xmfon36</name>
<cmt>q</cmt>
<desc>On Chemin n°36 </desc>
<link href="https://chemins.be/on/chemin/36"/><trkseg>
<trkpt lat="50.167760" lon="5.310291"><time>2026-05-04T21:08:09Z</time></trkpt>
<trkpt lat="50.166990" lon="5.310055"><time>2026-05-04T21:18:09Z</time></trkpt>
<trkpt lat="50.164984" lon="5.308336"><time>2026-05-04T21:28:09Z</time></trkpt>
</trkseg></trk>
<trk>
<name>xmfon36</name>
<cmt>v</cmt>
<desc>On Chemin n°36 </desc>
<link href="https://chemins.be/on/chemin/36"/><trkseg>
<trkpt lat="50.164984" lon="5.308336"><time>2026-05-04T21:28:09Z</time></trkpt>
<trkpt lat="50.163972" lon="5.307272"><time>2026-05-04T21:38:09Z</time></trkpt>
<trkpt lat="50.161760" lon="5.304178"><time>2026-05-04T21:48:09Z</time></trkpt>
<trkpt lat="50.160814" lon="5.302015"><time>2026-05-04T21:58:09Z</time></trkpt>
<trkpt lat="50.159617" lon="5.300577"><time>2026-05-04T22:08:09Z</time></trkpt>
<trkpt lat="50.158430" lon="5.299204"><time>2026-05-04T22:18:09Z</time></trkpt>
</trkseg>
</trk>
<trk>
<name>xmfon37</name>
<cmt>v</cmt>
<desc>On Sentier n°37 </desc>
<link href="https://chemins.be/on/sentier/37"/><trkseg>
<trkpt lat="50.173642" lon="5.295467"><time>2026-05-04T21:08:09Z</time></trkpt>
<trkpt lat="50.174450" lon="5.296729"><time>2026-05-04T21:18:09Z</time></trkpt>
</trkseg></trk>
<trk>
<name>xmfon37</name>
<cmt>q</cmt>
<desc>On Sentier n°37 </desc>
<link href="https://chemins.be/on/sentier/37"/><trkseg>
<trkpt lat="50.174450" lon="5.296729"><time>2026-05-04T21:18:09Z</time></trkpt>
<trkpt lat="50.175499" lon="5.298261"><time>2026-05-04T21:28:09Z</time></trkpt>
<trkpt lat="50.175866" lon="5.299556"><time>2026-05-04T21:38:09Z</time></trkpt>
<trkpt lat="50.176692" lon="5.300818"><time>2026-05-04T21:48:09Z</time></trkpt>
</trkseg>
</trk>
<trk>
<name>xmfon38</name>
<cmt>q</cmt>
<desc>On Sentier n°38 </desc>
<link href="https://chemins.be/on/sentier/38"/><trkseg>
<trkpt lat="50.174739" lon="5.293840"><time>2026-05-04T21:08:09Z</time></trkpt>
<trkpt lat="50.174235" lon="5.294234"><time>2026-05-04T21:18:09Z</time></trkpt>
<trkpt lat="50.173860" lon="5.293972"><time>2026-05-04T21:28:09Z</time></trkpt>
<trkpt lat="50.173419" lon="5.294094"><time>2026-05-04T21:38:09Z</time></trkpt>
<trkpt lat="50.173061" lon="5.294001"><time>2026-05-04T21:48:09Z</time></trkpt>
<trkpt lat="50.172805" lon="5.292928"><time>2026-05-04T21:58:09Z</time></trkpt>
<trkpt lat="50.172910" lon="5.292792"><time>2026-05-04T22:08:09Z</time></trkpt>
<trkpt lat="50.172534" lon="5.292106"><time>2026-05-04T22:18:09Z</time></trkpt>
</trkseg>
</trk>
<trk>
<name>xmfon39</name>
<cmt>v</cmt>
<desc>On Sentier n°39 </desc>
<link href="https://chemins.be/on/sentier/39"/><trkseg>
<trkpt lat="50.171237" lon="5.291226"><time>2026-05-04T21:08:09Z</time></trkpt>
<trkpt lat="50.171430" lon="5.295989"><time>2026-05-04T21:18:09Z</time></trkpt>
</trkseg></trk>
<trk>
<name>xmfon39</name>
<cmt>q</cmt>
<desc>On Sentier n°39 </desc>
<link href="https://chemins.be/on/sentier/39"/><trkseg>
<trkpt lat="50.171430" lon="5.295989"><time>2026-05-04T21:18:09Z</time></trkpt>
<trkpt lat="50.170770" lon="5.306203"><time>2026-05-04T21:28:09Z</time></trkpt>
</trkseg>
</trk>
<trk>
<name>xmfon4</name>
<cmt>d</cmt>
<desc>On Chemin n°4 </desc>
<link href="https://chemins.be/on/chemin/4"/><trkseg>
<trkpt lat="50.175033" lon="5.287248"><time>2026-05-04T21:08:09Z</time></trkpt>
<trkpt lat="50.175601" lon="5.286514"><time>2026-05-04T21:18:09Z</time></trkpt>
</trkseg></trk>
<trk>
<name>xmfon4</name>
<cmt>s</cmt>
<desc>On Chemin n°4 </desc>
<link href="https://chemins.be/on/chemin/4"/><trkseg>
<trkpt lat="50.175601" lon="5.286514"><time>2026-05-04T21:18:09Z</time></trkpt>
<trkpt lat="50.175783" lon="5.286328"><time>2026-05-04T21:28:09Z</time></trkpt>
</trkseg></trk>
<trk>
<name>xmfon4</name>
<cmt>d</cmt>
<desc>On Chemin n°4 </desc>
<link href="https://chemins.be/on/chemin/4"/><trkseg>
<trkpt lat="50.175783" lon="5.286328"><time>2026-05-04T21:28:09Z</time></trkpt>
<trkpt lat="50.176236" lon="5.284956"><time>2026-05-04T21:38:09Z</time></trkpt>
</trkseg>
</trk>
<trk>
<name>xmfon40</name>
<cmt>q</cmt>
<desc>On Sentier n°40 </desc>
<link href="https://chemins.be/on/sentier/40"/><trkseg>
<trkpt lat="50.166279" lon="5.293376"><time>2026-05-04T21:08:09Z</time></trkpt>
<trkpt lat="50.163453" lon="5.298938"><time>2026-05-04T21:18:09Z</time></trkpt>
<trkpt lat="50.161826" lon="5.299693"><time>2026-05-04T21:28:09Z</time></trkpt>
<trkpt lat="50.161628" lon="5.300534"><time>2026-05-04T21:38:09Z</time></trkpt>
<trkpt lat="50.159995" lon="5.300882"><time>2026-05-04T21:48:09Z</time></trkpt>
</trkseg></trk>
<trk>
<name>xmfon40</name>
<cmt>v</cmt>
<desc>On Sentier n°40 </desc>
<link href="https://chemins.be/on/sentier/40"/><trkseg>
<trkpt lat="50.159995" lon="5.300882"><time>2026-05-04T21:48:09Z</time></trkpt>
<trkpt lat="50.158317" lon="5.302676"><time>2026-05-04T21:58:09Z</time></trkpt>
</trkseg>
</trk>
<trk>
<name>xmfon41</name>
<cmt>v</cmt>
<desc>On Sentier n°41 </desc>
<link href="https://chemins.be/on/sentier/41"/><trkseg>
<trkpt lat="50.167465" lon="5.283097"><time>2026-05-04T21:08:09Z</time></trkpt>
<trkpt lat="50.167014" lon="5.282743"><time>2026-05-04T21:18:09Z</time></trkpt>
<trkpt lat="50.166364" lon="5.282683"><time>2026-05-04T21:28:09Z</time></trkpt>
</trkseg>
</trk>
<trk>
<name>xmfon42</name>
<cmt>q</cmt>
<desc>On Sentier n°42 </desc>
<link href="https://chemins.be/on/sentier/42"/><trkseg>
<trkpt lat="50.162922" lon="5.270894"><time>2026-05-04T21:08:09Z</time></trkpt>
<trkpt lat="50.164139" lon="5.273043"><time>2026-05-04T21:18:09Z</time></trkpt>
</trkseg></trk>
<trk>
<name>xmfon42</name>
<cmt>r</cmt>
<desc>On Sentier n°42 </desc>
<link href="https://chemins.be/on/sentier/42"/><trkseg>
<trkpt lat="50.164139" lon="5.273043"><time>2026-05-04T21:18:09Z</time></trkpt>
<trkpt lat="50.164290" lon="5.272607"><time>2026-05-04T21:28:09Z</time></trkpt>
</trkseg></trk>
<trk>
<name>xmfon42</name>
<cmt>q</cmt>
<desc>On Sentier n°42 </desc>
<link href="https://chemins.be/on/sentier/42"/><trkseg>
<trkpt lat="50.164290" lon="5.272607"><time>2026-05-04T21:28:09Z</time></trkpt>
<trkpt lat="50.165620" lon="5.274530"><time>2026-05-04T21:38:09Z</time></trkpt>
<trkpt lat="50.166184" lon="5.274888"><time>2026-05-04T21:48:09Z</time></trkpt>
<trkpt lat="50.167276" lon="5.276824"><time>2026-05-04T21:58:09Z</time></trkpt>
<trkpt lat="50.168000" lon="5.279720"><time>2026-05-04T22:08:09Z</time></trkpt>
<trkpt lat="50.169001" lon="5.281354"><time>2026-05-04T22:18:09Z</time></trkpt>
<trkpt lat="50.170501" lon="5.283891"><time>2026-05-04T22:28:09Z</time></trkpt>
</trkseg>
</trk>
<trk>
<name>xmfon43</name>
<cmt>s</cmt>
<desc>On Sentier n°43 </desc>
<link href="https://chemins.be/on/sentier/43"/><trkseg>
<trkpt lat="50.170489" lon="5.283976"><time>2026-05-04T21:08:09Z</time></trkpt>
<trkpt lat="50.170109" lon="5.281501"><time>2026-05-04T21:18:09Z</time></trkpt>
</trkseg>
</trk>
<trk>
<name>xmfon44</name>
<cmt>q</cmt>
<desc>On Sentier n°44 </desc>
<link href="https://chemins.be/on/sentier/44"/><trkseg>
<trkpt lat="50.170478" lon="5.283958"><time>2026-05-04T21:08:09Z</time></trkpt>
<trkpt lat="50.169634" lon="5.283923"><time>2026-05-04T21:18:09Z</time></trkpt>
</trkseg>
</trk>
<trk>
<name>xmfon47</name>
<cmt>q</cmt>
<desc>On Chemin n°47 </desc>
<link href="https://chemins.be/on/chemin/47"/><trkseg>
<trkpt lat="50.172992" lon="5.287639"><time>2026-05-04T21:08:09Z</time></trkpt>
<trkpt lat="50.173180" lon="5.288388"><time>2026-05-04T21:18:09Z</time></trkpt>
<trkpt lat="50.172995" lon="5.288849"><time>2026-05-04T21:28:09Z</time></trkpt>
</trkseg>
</trk>
<trk>
<name>xmfon48</name>
<cmt>q</cmt>
<desc>On Sentier n°48 </desc>
<link href="https://chemins.be/on/sentier/48"/><trkseg>
<trkpt lat="50.175302" lon="5.286838"><time>2026-05-04T21:08:09Z</time></trkpt>
<trkpt lat="50.174816" lon="5.286065"><time>2026-05-04T21:18:09Z</time></trkpt>
<trkpt lat="50.173543" lon="5.282618"><time>2026-05-04T21:28:09Z</time></trkpt>
<trkpt lat="50.172736" lon="5.281445"><time>2026-05-04T21:38:09Z</time></trkpt>
<trkpt lat="50.171802" lon="5.280930"><time>2026-05-04T21:48:09Z</time></trkpt>
<trkpt lat="50.170959" lon="5.279113"><time>2026-05-04T21:58:09Z</time></trkpt>
<trkpt lat="50.170675" lon="5.276830"><time>2026-05-04T22:08:09Z</time></trkpt>
</trkseg></trk>
<trk>
<name>xmfon48</name>
<cmt>s</cmt>
<desc>On Sentier n°48 </desc>
<link href="https://chemins.be/on/sentier/48"/><trkseg>
<trkpt lat="50.170675" lon="5.276830"><time>2026-05-04T22:08:09Z</time></trkpt>
<trkpt lat="50.170510" lon="5.275508"><time>2026-05-04T22:18:09Z</time></trkpt>
<trkpt lat="50.170162" lon="5.274378"><time>2026-05-04T22:28:09Z</time></trkpt>
<trkpt lat="50.170034" lon="5.271803"><time>2026-05-04T22:38:09Z</time></trkpt>
<trkpt lat="50.169493" lon="5.269171"><time>2026-05-04T22:48:09Z</time></trkpt>
</trkseg>
</trk>
<trk>
<name>xmfon49</name>
<cmt>q</cmt>
<desc>On Sentier n°49 </desc>
<link href="https://chemins.be/on/sentier/49"/><trkseg>
<trkpt lat="50.173486" lon="5.289202"><time>2026-05-04T21:08:09Z</time></trkpt>
<trkpt lat="50.174082" lon="5.289681"><time>2026-05-04T21:18:09Z</time></trkpt>
<trkpt lat="50.174139" lon="5.290064"><time>2026-05-04T21:28:09Z</time></trkpt>
<trkpt lat="50.175037" lon="5.290228"><time>2026-05-04T21:38:09Z</time></trkpt>
</trkseg>
</trk>
<trk>
<name>xmfon5</name>
<cmt>v</cmt>
<desc>On Chemin n°5 </desc>
<link href="https://chemins.be/on/chemin/5"/><trkseg>
<trkpt lat="50.176343" lon="5.284795"><time>2026-05-04T21:08:09Z</time></trkpt>
<trkpt lat="50.177121" lon="5.286476"><time>2026-05-04T21:18:09Z</time></trkpt>
<trkpt lat="50.177415" lon="5.286887"><time>2026-05-04T21:28:09Z</time></trkpt>
<trkpt lat="50.177918" lon="5.286869"><time>2026-05-04T21:38:09Z</time></trkpt>
<trkpt lat="50.178193" lon="5.286314"><time>2026-05-04T21:48:09Z</time></trkpt>
<trkpt lat="50.179038" lon="5.286275"><time>2026-05-04T21:58:09Z</time></trkpt>
<trkpt lat="50.179657" lon="5.285225"><time>2026-05-04T22:08:09Z</time></trkpt>
<trkpt lat="50.180097" lon="5.284739"><time>2026-05-04T22:18:09Z</time></trkpt>
<trkpt lat="50.180655" lon="5.284424"><time>2026-05-04T22:28:09Z</time></trkpt>
</trkseg></trk>
<trk>
<name>xmfon5</name>
<cmt>s</cmt>
<desc>On Chemin n°5 </desc>
<link href="https://chemins.be/on/chemin/5"/><trkseg>
<trkpt lat="50.180655" lon="5.284424"><time>2026-05-04T22:28:09Z</time></trkpt>
<trkpt lat="50.181642" lon="5.284644"><time>2026-05-04T22:38:09Z</time></trkpt>
<trkpt lat="50.189178" lon="5.284488"><time>2026-05-04T22:48:09Z</time></trkpt>
</trkseg>
</trk>
<trk>
<name>xmfon50</name>
<cmt>q</cmt>
<desc>On Sentier n°50 </desc>
<link href="https://chemins.be/on/sentier/50"/><trkseg>
<trkpt lat="50.176595" lon="5.294058"><time>2026-05-04T21:08:09Z</time></trkpt>
<trkpt lat="50.178137" lon="5.297012"><time>2026-05-04T21:18:09Z</time></trkpt>
<trkpt lat="50.178823" lon="5.298046"><time>2026-05-04T21:28:09Z</time></trkpt>
</trkseg>
</trk>
<trk>
<name>xmfon51</name>
<cmt>q</cmt>
<desc>On Sentier n°51 </desc>
<link href="https://chemins.be/on/sentier/51"/><trkseg>
<trkpt lat="50.178375" lon="5.298092"><time>2026-05-04T21:08:09Z</time></trkpt>
<trkpt lat="50.178833" lon="5.298135"><time>2026-05-04T21:18:09Z</time></trkpt>
<trkpt lat="50.179096" lon="5.298503"><time>2026-05-04T21:28:09Z</time></trkpt>
</trkseg></trk>
<trk>
<name>xmfon51</name>
<cmt>r</cmt>
<desc>On Sentier n°51 </desc>
<link href="https://chemins.be/on/sentier/51"/><trkseg>
<trkpt lat="50.179096" lon="5.298503"><time>2026-05-04T21:28:09Z</time></trkpt>
<trkpt lat="50.181031" lon="5.299297"><time>2026-05-04T21:38:09Z</time></trkpt>
</trkseg>
</trk>
<trk>
<name>xmfon52</name>
<cmt>q</cmt>
<desc>On Sentier n°52 </desc>
<link href="https://chemins.be/on/sentier/52"/><trkseg>
<trkpt lat="50.173528" lon="5.291026"><time>2026-05-04T21:08:09Z</time></trkpt>
<trkpt lat="50.172435" lon="5.291741"><time>2026-05-04T21:18:09Z</time></trkpt>
</trkseg>
</trk>
<trk>
<name>xmfon7</name>
<cmt>r</cmt>
<desc>On Chemin n°7 </desc>
<link href="https://chemins.be/on/chemin/7"/><trkseg>
<trkpt lat="50.176341" lon="5.271756"><time>2026-05-04T21:08:09Z</time></trkpt>
<trkpt lat="50.176428" lon="5.270987"><time>2026-05-04T21:18:09Z</time></trkpt>
<trkpt lat="50.177506" lon="5.268751"><time>2026-05-04T21:28:09Z</time></trkpt>
<trkpt lat="50.179045" lon="5.266390"><time>2026-05-04T21:38:09Z</time></trkpt>
<trkpt lat="50.179467" lon="5.264760"><time>2026-05-04T21:48:09Z</time></trkpt>
<trkpt lat="50.181212" lon="5.261520"><time>2026-05-04T21:58:09Z</time></trkpt>
<trkpt lat="50.181619" lon="5.258244"><time>2026-05-04T22:08:09Z</time></trkpt>
</trkseg></trk>
<trk>
<name>xmfon7</name>
<cmt>q</cmt>
<desc>On Chemin n°7 </desc>
<link href="https://chemins.be/on/chemin/7"/><trkseg>
<trkpt lat="50.181619" lon="5.258244"><time>2026-05-04T22:08:09Z</time></trkpt>
<trkpt lat="50.182155" lon="5.253673"><time>2026-05-04T22:18:09Z</time></trkpt>
</trkseg>
</trk>
<trk>
<name>xmfoni1</name>
<cmt>v</cmt>
<desc>On Chemin n°i1 </desc>
<link href="https://chemins.be/on/chemin/i1"/><trkseg>
<trkpt lat="50.161704" lon="5.311900"><time>2026-05-04T21:08:09Z</time></trkpt>
<trkpt lat="50.159813" lon="5.308999"><time>2026-05-04T21:18:09Z</time></trkpt>
</trkseg>
</trk>
<trk>
<name>xmfoni2</name>
<cmt>q</cmt>
<desc>On Sentier n°i2 </desc>
<link href="https://chemins.be/on/sentier/i2"/><trkseg>
<trkpt lat="50.161701" lon="5.312217"><time>2026-05-04T21:08:09Z</time></trkpt>
<trkpt lat="50.160388" lon="5.311992"><time>2026-05-04T21:18:09Z</time></trkpt>
</trkseg>
</trk>
<trk>
<name>xmfoni3</name>
<cmt>v</cmt>
<desc>On Chemin n°i3 </desc>
<link href="https://chemins.be/on/chemin/i3"/><trkseg>
<trkpt lat="50.176216" lon="5.287094"><time>2026-05-04T21:08:09Z</time></trkpt>
<trkpt lat="50.175348" lon="5.285632"><time>2026-05-04T21:18:09Z</time></trkpt>
</trkseg>
</trk>
</gpx>